createdAt,value
2022-07-29T00:01:23.441Z,968.21
2022-07-29T00:11:22.613Z,968.20
2022-07-29T00:21:22.790Z,968.11
2022-07-29T00:31:22.994Z,968.07
2022-07-29T00:41:23.351Z,968.05
2022-07-29T00:51:23.195Z,967.91
2022-07-29T01:01:23.440Z,967.79
2022-07-29T01:11:23.487Z,967.70
2022-07-29T01:21:23.657Z,967.59
2022-07-29T01:31:24.940Z,967.51
2022-07-29T01:41:23.969Z,967.52
2022-07-29T01:51:24.162Z,967.51
2022-07-29T02:01:24.430Z,967.63
2022-07-29T02:11:24.498Z,967.55
2022-07-29T02:21:24.685Z,967.66
2022-07-29T02:31:24.946Z,967.56
2022-07-29T02:41:25.018Z,967.56
2022-07-29T02:51:43.467Z,967.55
2022-07-29T03:01:26.414Z,967.50
2022-07-29T03:11:42.310Z,967.57
2022-07-29T03:21:26.765Z,967.57
2022-07-29T03:31:26.014Z,967.51
2022-07-29T03:41:26.113Z,967.42
2022-07-29T03:51:33.834Z,967.54
2022-07-29T04:01:27.462Z,967.72
2022-07-29T04:11:26.611Z,967.78
2022-07-29T04:21:26.776Z,967.88
2022-07-29T04:31:27.040Z,968.01
2022-07-29T04:41:32.651Z,968.08
2022-07-29T04:51:28.266Z,968.03
2022-07-29T05:01:27.455Z,968.11
2022-07-29T05:11:30.551Z,968.06
2022-07-29T05:21:27.717Z,968.11
2022-07-29T05:31:27.983Z,968.09
2022-07-29T05:41:28.314Z,968.12
2022-07-29T05:51:28.263Z,968.23
2022-07-29T06:01:28.520Z,968.21
2022-07-29T06:11:28.609Z,968.26
2022-07-29T06:21:28.771Z,968.31
2022-07-29T06:31:28.928Z,968.29
2022-07-29T06:41:29.093Z,968.30
2022-07-29T06:51:29.257Z,968.39
2022-07-29T07:01:29.555Z,968.57
2022-07-29T07:11:29.822Z,968.47
2022-07-29T07:21:30.379Z,968.55
2022-07-29T07:31:30.203Z,968.58
2022-07-29T07:41:32.539Z,968.54
2022-07-29T07:51:30.177Z,968.54
2022-07-29T08:01:30.486Z,968.64
2022-07-29T08:11:31.545Z,968.69
2022-07-29T08:21:30.725Z,968.62
2022-07-29T08:31:30.933Z,968.72
2022-07-29T08:41:31.110Z,968.68
2022-07-29T08:51:31.281Z,968.62
2022-07-29T09:01:36.077Z,968.67
2022-07-29T09:11:32.667Z,968.60
2022-07-29T09:21:31.874Z,968.85
2022-07-29T09:31:32.269Z,968.91
2022-07-29T09:41:32.207Z,968.81
2022-07-29T09:51:38.161Z,968.54
2022-07-29T10:01:33.459Z,968.52
2022-07-29T10:11:48.079Z,968.46
2022-07-29T10:21:35.854Z,968.50
2022-07-29T10:31:33.055Z,968.36
2022-07-29T10:41:44.105Z,968.25
2022-07-29T10:51:34.349Z,968.28
2022-07-29T11:01:37.259Z,968.12
2022-07-29T11:11:34.882Z,968.06
2022-07-29T11:21:48.903Z,968.10
2022-07-29T11:31:35.012Z,968.11
2022-07-29T11:41:34.191Z,968.33
2022-07-29T11:51:34.365Z,968.51
2022-07-29T12:01:35.197Z,968.77
2022-07-29T12:11:34.853Z,968.54
2022-07-29T12:21:34.908Z,968.43
2022-07-29T12:31:41.965Z,968.32
2022-07-29T12:41:36.208Z,968.48
2022-07-29T12:51:36.583Z,968.68
2022-07-29T13:01:35.639Z,969.09
2022-07-29T13:11:35.707Z,969.27
2022-07-29T13:21:35.860Z,969.08
2022-07-29T13:31:36.093Z,969.01
2022-07-29T13:41:36.482Z,968.78
2022-07-29T13:51:36.416Z,968.65
2022-07-29T14:01:36.573Z,968.68
2022-07-29T14:11:36.639Z,968.81
2022-07-29T14:21:36.794Z,968.79
2022-07-29T14:31:37.313Z,968.76
2022-07-29T14:41:37.492Z,968.84
2022-07-29T14:51:37.355Z,968.81
2022-07-29T15:01:37.609Z,968.88
2022-07-29T15:11:38.709Z,968.79
2022-07-29T15:21:41.682Z,968.77
2022-07-29T15:31:39.167Z,968.65
2022-07-29T15:41:38.218Z,968.62
2022-07-29T15:51:38.400Z,968.76
2022-07-29T16:01:38.565Z,968.65
2022-07-29T16:11:39.997Z,968.67
2022-07-29T16:21:38.825Z,968.63
2022-07-29T16:31:39.062Z,968.73
2022-07-29T16:41:39.154Z,968.71
2022-07-29T16:51:39.344Z,968.72
2022-07-29T17:01:39.568Z,968.82
2022-07-29T17:11:51.710Z,968.88
2022-07-29T17:21:46.788Z,968.89
2022-07-29T17:31:41.077Z,968.92
2022-07-29T17:41:40.226Z,968.90
2022-07-29T17:51:40.406Z,968.95
2022-07-29T18:01:40.619Z,969.03
2022-07-29T18:11:40.770Z,969.04
2022-07-29T18:21:43.536Z,969.17
2022-07-29T18:31:42.232Z,969.23
2022-07-29T18:41:49.909Z,969.31
2022-07-29T18:51:42.689Z,969.17
2022-07-29T19:01:41.663Z,969.34
2022-07-29T19:11:41.750Z,969.43
2022-07-29T19:21:41.911Z,969.58
2022-07-29T19:31:42.125Z,969.75
2022-07-29T19:41:42.294Z,969.71
2022-07-29T19:51:42.478Z,969.75
2022-07-29T20:01:42.736Z,969.70
2022-07-29T20:11:42.828Z,969.72
2022-07-29T20:21:42.986Z,969.71
2022-07-29T20:31:43.157Z,969.67
2022-07-29T20:41:43.444Z,969.79
2022-07-29T20:51:44.185Z,969.78
2022-07-29T21:01:43.694Z,969.83
2022-07-29T21:11:45.198Z,969.98
2022-07-29T21:21:43.942Z,970.20
2022-07-29T21:31:44.118Z,970.16
2022-07-29T21:41:44.294Z,970.16
2022-07-29T21:51:44.470Z,970.14
2022-07-29T22:01:44.690Z,970.21
2022-07-29T22:11:44.837Z,970.17
2022-07-29T22:21:45.008Z,970.25
2022-07-29T22:31:45.158Z,970.17
2022-07-29T22:41:45.347Z,970.21
2022-07-29T22:51:45.522Z,970.02
2022-07-29T23:01:45.764Z,970.15
2022-07-29T23:11:45.810Z,970.12
2022-07-29T23:21:45.967Z,970.17
2022-07-29T23:31:48.194Z,970.03
2022-07-29T23:41:46.317Z,970.02
2022-07-29T23:51:46.502Z,969.95
